createdAt,value
2019-02-11T00:01:15.909Z,15.60
2019-02-11T00:03:44.495Z,14.93
2019-02-11T00:06:13.136Z,15.03
2019-02-11T00:08:41.750Z,14.90
2019-02-11T00:11:10.410Z,16.13
2019-02-11T00:13:38.961Z,14.47
2019-02-11T00:16:07.584Z,15.30
2019-02-11T00:18:36.089Z,15.00
2019-02-11T00:21:04.709Z,14.63
2019-02-11T00:23:33.323Z,14.67
2019-02-11T00:26:01.993Z,13.27
2019-02-11T00:28:30.556Z,15.70
2019-02-11T00:30:59.193Z,13.50
2019-02-11T00:33:27.781Z,13.33
2019-02-11T00:35:56.411Z,13.40
2019-02-11T00:38:25.042Z,12.87
2019-02-11T00:40:53.625Z,12.50
2019-02-11T00:43:22.251Z,12.67
2019-02-11T00:45:50.888Z,12.23
2019-02-11T00:48:19.393Z,12.60
2019-02-11T00:50:48.029Z,12.60
2019-02-11T00:53:16.648Z,12.90
2019-02-11T00:55:45.252Z,12.00
2019-02-11T00:58:13.888Z,12.63
2019-02-11T01:00:42.580Z,14.17
2019-02-11T01:03:11.235Z,12.43
2019-02-11T01:05:39.784Z,12.50
2019-02-11T01:08:08.715Z,13.23
2019-02-11T01:10:37.384Z,13.60
2019-02-11T01:13:06.003Z,14.73
2019-02-11T01:15:34.617Z,13.80
2019-02-11T01:18:03.208Z,13.07
2019-02-11T01:20:31.765Z,12.47
2019-02-11T01:23:00.390Z,15.87
2019-02-11T01:25:28.995Z,14.93
2019-02-11T01:27:57.687Z,14.97
2019-02-11T01:30:26.333Z,15.03
2019-02-11T01:32:54.903Z,16.33
2019-02-11T01:35:23.452Z,14.33
2019-02-11T01:37:52.080Z,13.43
2019-02-11T01:40:20.724Z,13.53
2019-02-11T01:42:49.355Z,13.87
2019-02-11T01:45:17.979Z,12.03
2019-02-11T01:47:46.629Z,13.13
2019-02-11T01:50:15.253Z,12.40
2019-02-11T01:52:43.883Z,12.57
2019-02-11T01:55:12.558Z,12.60
2019-02-11T01:57:41.188Z,12.67
2019-02-11T02:00:12.476Z,13.83
2019-02-11T02:02:41.135Z,12.10
2019-02-11T02:05:10.263Z,11.50
2019-02-11T02:07:38.886Z,12.90
2019-02-11T02:10:10.781Z,13.53
2019-02-11T02:12:39.326Z,14.43
2019-02-11T02:15:09.844Z,13.80
2019-02-11T02:17:38.501Z,12.43
2019-02-11T02:20:10.260Z,11.80
2019-02-11T02:22:38.820Z,15.50
2019-02-11T02:25:08.966Z,12.80
2019-02-11T02:27:37.597Z,12.10
2019-02-11T02:30:08.930Z,12.77
2019-02-11T02:32:37.580Z,12.90
2019-02-11T02:35:06.804Z,12.20
2019-02-11T02:37:35.430Z,13.97
2019-02-11T02:40:05.081Z,12.47
2019-02-11T02:42:33.699Z,11.57
2019-02-11T02:45:02.325Z,11.03
2019-02-11T02:47:30.989Z,11.27
2019-02-11T02:49:59.601Z,13.00
2019-02-11T02:52:28.219Z,14.77
2019-02-11T02:54:56.884Z,12.87
2019-02-11T02:57:25.515Z,15.13
2019-02-11T02:59:54.066Z,14.40
2019-02-11T03:02:22.788Z,12.90
2019-02-11T03:04:51.408Z,15.30
2019-02-11T03:07:20.036Z,11.30
2019-02-11T03:09:48.703Z,11.93
2019-02-11T03:12:17.322Z,19.23
2019-02-11T03:14:45.944Z,17.70
2019-02-11T03:17:14.603Z,10.70
2019-02-11T03:19:43.217Z,10.73
2019-02-11T03:22:11.854Z,10.23
2019-02-11T03:24:40.425Z,15.03
2019-02-11T03:27:09.044Z,14.27
2019-02-11T03:29:37.685Z,10.27
2019-02-11T03:32:06.347Z,11.10
2019-02-11T03:34:34.967Z,12.97
2019-02-11T03:37:03.585Z,10.70
2019-02-11T03:39:32.250Z,11.23
2019-02-11T03:42:01.078Z,11.47
2019-02-11T03:44:29.702Z,12.53
2019-02-11T03:46:58.336Z,11.13
2019-02-11T03:49:26.959Z,12.73
2019-02-11T03:51:55.607Z,12.00
2019-02-11T03:54:24.238Z,13.33
2019-02-11T03:56:52.851Z,11.40
2019-02-11T03:59:21.881Z,12.90
2019-02-11T04:01:50.560Z,11.50
2019-02-11T04:04:19.251Z,11.83
2019-02-11T04:06:47.866Z,11.97
2019-02-11T04:09:16.539Z,10.97
2019-02-11T04:11:45.164Z,12.03
2019-02-11T04:14:13.786Z,9.70
2019-02-11T04:16:42.452Z,11.93
2019-02-11T04:19:11.067Z,10.97
2019-02-11T04:21:39.694Z,11.40
2019-02-11T04:24:08.417Z,11.17
2019-02-11T04:26:37.056Z,11.07
2019-02-11T04:29:05.711Z,16.07
2019-02-11T04:31:34.348Z,14.00
2019-02-11T04:34:02.891Z,12.60
2019-02-11T04:36:31.526Z,13.30
2019-02-11T04:39:00.177Z,12.13
2019-02-11T04:41:29.683Z,12.87
2019-02-11T04:43:58.303Z,11.77
2019-02-11T04:46:26.961Z,13.77
2019-02-11T04:48:55.584Z,12.40
2019-02-11T04:51:24.208Z,11.50
2019-02-11T04:53:52.874Z,12.77
2019-02-11T04:56:21.490Z,13.23
2019-02-11T04:58:50.113Z,14.23
2019-02-11T05:01:18.765Z,13.43
2019-02-11T05:03:47.385Z,11.63
2019-02-11T05:06:16.004Z,12.37
2019-02-11T05:08:44.658Z,11.83
2019-02-11T05:11:13.275Z,14.00
2019-02-11T05:13:41.896Z,12.63
2019-02-11T05:16:10.544Z,10.83
2019-02-11T05:18:39.163Z,12.17
2019-02-11T05:21:07.781Z,11.20
2019-02-11T05:23:36.447Z,12.73
2019-02-11T05:26:05.062Z,12.90
2019-02-11T05:28:33.679Z,10.43
2019-02-11T05:31:02.330Z,12.30
2019-02-11T05:33:30.969Z,11.47
2019-02-11T05:35:59.712Z,12.17
2019-02-11T05:38:28.388Z,13.17
2019-02-11T05:40:56.996Z,13.37
2019-02-11T05:43:25.626Z,13.97
2019-02-11T05:45:54.296Z,15.73
2019-02-11T05:48:22.915Z,11.23
2019-02-11T05:50:51.547Z,10.67
2019-02-11T05:53:20.224Z,12.47
2019-02-11T05:55:48.920Z,11.80
2019-02-11T05:58:17.543Z,12.80
2019-02-11T06:00:46.139Z,13.10
2019-02-11T06:03:14.767Z,12.63
2019-02-11T06:05:43.551Z,16.03
2019-02-11T06:08:12.209Z,13.30
2019-02-11T06:10:40.842Z,12.70
2019-02-11T06:13:09.467Z,13.60
2019-02-11T06:15:38.119Z,12.37
2019-02-11T06:18:06.821Z,11.20
2019-02-11T06:20:35.861Z,12.80
2019-02-11T06:23:04.635Z,12.37
2019-02-11T06:25:33.291Z,10.33
2019-02-11T06:28:01.897Z,11.30
2019-02-11T06:30:30.648Z,11.27
2019-02-11T06:32:59.266Z,11.73
2019-02-11T06:35:27.892Z,11.97
2019-02-11T06:37:56.547Z,16.43
2019-02-11T06:40:25.179Z,17.33
2019-02-11T06:42:54.622Z,18.00
2019-02-11T06:45:23.285Z,17.33
2019-02-11T06:47:51.910Z,15.17
2019-02-11T06:50:20.539Z,14.47
2019-02-11T06:52:49.200Z,15.17
2019-02-11T06:55:17.945Z,16.33
2019-02-11T06:57:46.574Z,17.13
2019-02-11T07:00:16.052Z,17.50
2019-02-11T07:02:44.665Z,19.10
2019-02-11T07:05:13.354Z,16.40
2019-02-11T07:07:42.041Z,15.60
2019-02-11T07:10:11.774Z,12.60
2019-02-11T07:12:40.409Z,13.63
2019-02-11T07:15:21.651Z,13.20
2019-02-11T07:17:44.161Z,19.93
2019-02-11T07:20:12.781Z,13.20
2019-02-11T07:22:41.446Z,11.37
2019-02-11T07:25:11.364Z,12.60
2019-02-11T07:27:39.985Z,12.70
2019-02-11T07:30:13.054Z,11.17
2019-02-11T07:32:41.691Z,12.53
2019-02-11T07:35:10.304Z,12.97
2019-02-11T07:37:38.974Z,12.20
2019-02-11T07:40:10.197Z,9.63
2019-02-11T07:42:43.136Z,8.00
2019-02-11T07:45:19.744Z,10.47
2019-02-11T07:47:48.358Z,7.93
2019-02-11T07:50:16.978Z,9.47
2019-02-11T07:52:45.645Z,9.73
2019-02-11T07:55:14.343Z,7.47
2019-02-11T07:57:42.979Z,7.53
2019-02-11T08:00:11.800Z,8.43
2019-02-11T08:02:40.420Z,9.97
2019-02-11T08:05:09.046Z,10.63
2019-02-11T08:07:37.706Z,11.77
2019-02-11T08:10:08.135Z,12.23
2019-02-11T08:12:36.762Z,11.37
2019-02-11T08:15:09.641Z,9.47
2019-02-11T08:17:38.257Z,8.47
2019-02-11T08:20:08.568Z,9.60
2019-02-11T08:22:37.228Z,9.63
2019-02-11T08:25:06.059Z,9.40
2019-02-11T08:27:34.685Z,10.00
2019-02-11T08:30:03.856Z,10.00
2019-02-11T08:32:32.483Z,10.87
2019-02-11T08:35:01.117Z,9.10
2019-02-11T08:37:29.841Z,9.10
2019-02-11T08:39:58.473Z,10.30
2019-02-11T08:42:27.103Z,10.80
2019-02-11T08:44:55.971Z,9.47
2019-02-11T08:47:24.616Z,10.40
2019-02-11T08:49:53.312Z,9.70
2019-02-11T08:52:23.735Z,9.93
2019-02-11T08:54:52.566Z,10.70
2019-02-11T08:57:21.220Z,10.33
2019-02-11T08:59:49.882Z,13.43
2019-02-11T09:02:18.521Z,10.23
2019-02-11T09:04:47.220Z,12.27
2019-02-11T09:07:15.887Z,12.50
2019-02-11T09:09:44.527Z,12.63
2019-02-11T09:12:13.156Z,12.73
2019-02-11T09:14:41.893Z,12.60
2019-02-11T09:17:10.710Z,14.37
2019-02-11T09:19:39.326Z,13.40
2019-02-11T09:22:07.991Z,11.30
2019-02-11T09:24:36.609Z,10.90
2019-02-11T09:27:05.233Z,10.73
2019-02-11T09:29:33.974Z,13.10
2019-02-11T09:32:02.592Z,12.13
2019-02-11T09:34:31.201Z,13.57
2019-02-11T09:36:59.863Z,11.70
2019-02-11T09:39:28.490Z,13.13
2019-02-11T09:41:57.041Z,13.00
2019-02-11T09:44:29.726Z,12.73
2019-02-11T09:46:56.058Z,12.80
2019-02-11T09:49:24.707Z,12.70
2019-02-11T09:51:53.755Z,13.43
2019-02-11T09:54:22.447Z,15.03
2019-02-11T09:56:51.082Z,15.17
2019-02-11T09:59:19.761Z,13.60
2019-02-11T10:01:48.370Z,13.23
2019-02-11T10:04:16.997Z,13.53
2019-02-11T10:06:45.679Z,22.57
2019-02-11T10:09:14.309Z,17.37
2019-02-11T10:11:42.944Z,18.97
2019-02-11T10:14:11.616Z,15.30
2019-02-11T10:16:40.241Z,13.03
2019-02-11T10:19:08.885Z,14.40
2019-02-11T10:21:37.557Z,14.10
2019-02-11T10:24:06.179Z,13.90
2019-02-11T10:26:34.805Z,13.87
2019-02-11T10:29:03.537Z,14.77
2019-02-11T10:31:32.162Z,14.10
2019-02-11T10:34:00.793Z,15.83
2019-02-11T10:36:29.454Z,14.67
2019-02-11T10:38:58.074Z,12.90
2019-02-11T10:41:26.703Z,11.33
2019-02-11T10:43:55.367Z,11.03
2019-02-11T10:46:24.002Z,15.97
2019-02-11T10:48:52.634Z,14.13
2019-02-11T10:51:21.297Z,13.00
2019-02-11T10:53:49.916Z,12.83
2019-02-11T10:56:18.534Z,12.77
2019-02-11T10:58:47.213Z,11.73
2019-02-11T11:01:15.905Z,13.20
2019-02-11T11:03:44.583Z,14.77
2019-02-11T11:06:13.357Z,15.70
2019-02-11T11:08:42.000Z,17.40
2019-02-11T11:11:10.662Z,14.60
2019-02-11T11:13:39.294Z,17.47
2019-02-11T11:16:07.990Z,17.07
2019-02-11T11:18:36.643Z,15.33
2019-02-11T11:21:06.542Z,16.43
2019-02-11T11:23:35.168Z,16.03
2019-02-11T11:26:03.833Z,18.37
2019-02-11T11:28:32.469Z,14.70
2019-02-11T11:31:01.094Z,15.10
2019-02-11T11:33:29.750Z,18.53
2019-02-11T11:35:58.372Z,15.30
2019-02-11T11:38:27.000Z,17.87
2019-02-11T11:40:55.732Z,17.23
2019-02-11T11:43:24.358Z,12.80
2019-02-11T11:45:52.986Z,12.83
2019-02-11T11:48:21.642Z,13.93
2019-02-11T11:50:51.179Z,20.27
2019-02-11T11:53:19.813Z,28.10
2019-02-11T11:55:48.648Z,18.03
2019-02-11T11:58:17.285Z,15.70
2019-02-11T12:00:46.110Z,16.97
2019-02-11T12:03:14.788Z,15.50
2019-02-11T12:05:43.558Z,17.33
2019-02-11T12:08:12.274Z,14.80
2019-02-11T12:10:41.015Z,12.80
2019-02-11T12:13:22.598Z,13.17
2019-02-11T12:15:42.136Z,14.73
2019-02-11T12:18:10.872Z,13.60
2019-02-11T12:20:39.592Z,12.83
2019-02-11T12:23:08.259Z,16.87
2019-02-11T12:25:36.984Z,13.73
2019-02-11T12:28:05.712Z,12.50
2019-02-11T12:30:34.411Z,12.43
2019-02-11T12:33:03.115Z,12.83
2019-02-11T12:35:31.816Z,14.63
2019-02-11T12:38:00.508Z,14.23
2019-02-11T12:40:29.276Z,12.53
2019-02-11T12:42:57.974Z,12.20
2019-02-11T12:45:26.793Z,12.70
2019-02-11T12:47:55.481Z,13.50
2019-02-11T12:50:24.162Z,11.83
2019-02-11T12:52:53.637Z,15.17
2019-02-11T12:55:22.377Z,10.53
2019-02-11T12:57:51.014Z,11.20
2019-02-11T13:00:23.526Z,13.17
2019-02-11T13:02:52.288Z,9.03
2019-02-11T13:05:23.645Z,9.97
2019-02-11T13:07:51.429Z,11.77
2019-02-11T13:10:20.979Z,11.70
2019-02-11T13:12:49.651Z,10.47
2019-02-11T13:15:57.891Z,10.53
2019-02-11T13:17:50.125Z,11.90
2019-02-11T13:20:19.415Z,13.57
2019-02-11T13:22:48.447Z,17.67
2019-02-11T13:25:17.801Z,17.37
2019-02-11T13:27:46.710Z,14.37
2019-02-11T13:30:25.922Z,12.67
2019-02-11T13:32:54.695Z,11.43
2019-02-11T13:35:23.440Z,13.73
2019-02-11T13:37:54.992Z,15.23
2019-02-11T13:40:23.433Z,12.33
2019-02-11T13:42:52.067Z,12.87
2019-02-11T13:45:22.150Z,17.57
2019-02-11T13:47:56.383Z,15.93
2019-02-11T13:50:23.911Z,12.67
2019-02-11T13:52:52.853Z,13.70
2019-02-11T13:55:22.192Z,16.00
2019-02-11T13:57:51.196Z,15.57
2019-02-11T14:00:36.158Z,16.47
2019-02-11T14:03:06.460Z,15.60
2019-02-11T14:05:35.470Z,16.00
2019-02-11T14:08:04.524Z,14.87
2019-02-11T14:10:33.328Z,15.57
2019-02-11T14:13:02.075Z,13.20
2019-02-11T14:15:30.849Z,14.50
2019-02-11T14:18:14.487Z,14.97
2019-02-11T14:20:41.023Z,14.43
2019-02-11T14:23:09.695Z,14.00
2019-02-11T14:25:45.044Z,13.60
2019-02-11T14:28:08.967Z,13.63
2019-02-11T14:30:37.686Z,14.43
2019-02-11T14:33:06.576Z,13.10
2019-02-11T14:35:35.427Z,12.17
2019-02-11T14:38:04.257Z,13.67
2019-02-11T14:40:33.023Z,21.00
2019-02-11T14:43:01.768Z,20.47
2019-02-11T14:45:30.559Z,19.20
2019-02-11T14:47:59.278Z,39.07
2019-02-11T14:50:28.030Z,114.70
2019-02-11T14:52:56.730Z,11.50
2019-02-11T14:55:26.303Z,10.13
2019-02-11T14:57:55.037Z,7.90
2019-02-11T15:00:23.727Z,8.67
2019-02-11T15:02:52.433Z,11.30
2019-02-11T15:05:21.151Z,9.33
2019-02-11T15:07:49.853Z,6.97
2019-02-11T15:10:19.672Z,5.43
2019-02-11T15:12:48.573Z,3.63
2019-02-11T15:15:17.255Z,3.67
2019-02-11T15:17:46.857Z,5.07
2019-02-11T15:20:16.587Z,3.17
2019-02-11T15:22:45.381Z,3.13
2019-02-11T15:25:15.884Z,4.37
2019-02-11T15:27:44.612Z,3.13
2019-02-11T15:30:15.646Z,2.93
2019-02-11T15:32:44.351Z,3.23
2019-02-11T15:35:13.108Z,4.13
2019-02-11T15:37:41.791Z,4.77
2019-02-11T15:40:18.099Z,4.53
2019-02-11T15:42:46.886Z,5.13
2019-02-11T15:45:15.973Z,6.60
2019-02-11T15:47:45.608Z,3.83
2019-02-11T15:50:16.202Z,6.30
2019-02-11T15:52:44.891Z,9.20
2019-02-11T15:55:18.346Z,9.23
2019-02-11T15:57:47.056Z,7.93
2019-02-11T16:00:20.801Z,5.00
2019-02-11T16:02:51.575Z,4.87
2019-02-11T16:05:19.950Z,5.70
2019-02-11T16:07:48.739Z,7.80
2019-02-11T16:10:25.829Z,7.67
2019-02-11T16:12:54.514Z,9.57
2019-02-11T16:15:23.304Z,5.97
2019-02-11T16:17:52.041Z,14.07
2019-02-11T16:20:22.202Z,24.17
2019-02-11T16:22:52.958Z,12.47
2019-02-11T16:25:21.703Z,6.70
2019-02-11T16:27:50.396Z,10.83
2019-02-11T16:30:22.050Z,13.13
2019-02-11T16:32:50.785Z,8.83
2019-02-11T16:35:19.689Z,5.47
2019-02-11T16:37:48.384Z,6.30
2019-02-11T16:40:25.781Z,22.03
2019-02-11T16:42:54.481Z,5.93
2019-02-11T16:45:23.281Z,8.90
2019-02-11T16:47:52.014Z,3.23
2019-02-11T16:50:20.805Z,2.90
2019-02-11T16:52:49.501Z,6.47
2019-02-11T16:55:18.229Z,3.23
2019-02-11T16:57:47.602Z,6.27
2019-02-11T17:00:18.581Z,16.33
2019-02-11T17:02:47.320Z,14.13
2019-02-11T17:05:16.107Z,6.77
2019-02-11T17:07:44.802Z,8.77
2019-02-11T17:10:16.668Z,10.33
2019-02-11T17:12:45.373Z,10.93
2019-02-11T17:15:18.157Z,12.83
2019-02-11T17:17:46.959Z,17.20
2019-02-11T17:20:16.675Z,17.33
2019-02-11T17:22:45.901Z,14.63
2019-02-11T17:25:15.448Z,16.23
2019-02-11T17:27:44.358Z,17.47
2019-02-11T17:30:21.760Z,16.40
2019-02-11T17:32:50.559Z,16.93
2019-02-11T17:35:20.703Z,19.40
2019-02-11T17:37:49.464Z,17.23
2019-02-11T17:40:18.160Z,16.13
2019-02-11T17:42:46.942Z,18.67
2019-02-11T17:45:19.867Z,18.43
2019-02-11T17:47:48.573Z,20.00
2019-02-11T17:50:17.289Z,18.60
2019-02-11T17:52:46.018Z,21.13
2019-02-11T17:55:15.123Z,23.13
2019-02-11T17:57:46.825Z,20.20
2019-02-11T18:00:26.718Z,21.53
2019-02-11T18:02:55.428Z,18.03
2019-02-11T18:05:24.148Z,19.03
2019-02-11T18:07:54.452Z,21.97
2019-02-11T18:10:23.169Z,15.60
2019-02-11T18:12:51.878Z,15.53
2019-02-11T18:15:22.061Z,12.50
2019-02-11T18:17:53.533Z,12.17
2019-02-11T18:20:22.234Z,14.63
2019-02-11T18:22:50.979Z,10.93
2019-02-11T18:25:19.783Z,10.17
2019-02-11T18:27:48.491Z,11.27
2019-02-11T18:30:17.459Z,11.27
2019-02-11T18:32:46.220Z,11.33
2019-02-11T18:35:17.676Z,10.73
2019-02-11T18:37:46.406Z,11.27
2019-02-11T18:40:15.805Z,11.90
2019-02-11T18:42:45.412Z,11.20
2019-02-11T18:45:17.147Z,11.27
2019-02-11T18:47:47.298Z,12.87
2019-02-11T18:50:16.505Z,13.87
2019-02-11T18:52:45.247Z,11.80
2019-02-11T18:55:16.193Z,13.07
2019-02-11T18:57:46.468Z,12.53
2019-02-11T19:00:20.643Z,11.97
2019-02-11T19:02:49.737Z,17.00
2019-02-11T19:05:24.103Z,16.93
2019-02-11T19:07:52.849Z,16.03
2019-02-11T19:10:21.644Z,14.60
2019-02-11T19:12:50.353Z,14.43
2019-02-11T19:15:19.991Z,15.17
2019-02-11T19:17:48.781Z,13.63
2019-02-11T19:20:17.983Z,13.17
2019-02-11T19:22:46.983Z,16.03
2019-02-11T19:25:17.599Z,14.93
2019-02-11T19:27:47.762Z,14.33
2019-02-11T19:30:25.078Z,17.37
2019-02-11T19:32:53.774Z,16.90
2019-02-11T19:35:22.563Z,15.07
2019-02-11T19:37:51.303Z,14.90
2019-02-11T19:40:21.020Z,20.07
2019-02-11T19:42:49.718Z,15.87
2019-02-11T19:45:20.907Z,12.97
2019-02-11T19:47:49.617Z,14.07
2019-02-11T19:50:20.163Z,16.00
2019-02-11T19:52:48.988Z,14.60
2019-02-11T19:55:17.785Z,16.23
2019-02-11T19:57:46.581Z,18.47
2019-02-11T20:00:19.926Z,19.90
2019-02-11T20:02:49.564Z,16.50
2019-02-11T20:05:18.362Z,22.97
2019-02-11T20:07:47.303Z,15.57
2019-02-11T20:10:18.292Z,11.93
2019-02-11T20:12:47.164Z,11.03
2019-02-11T20:15:17.959Z,12.07
2019-02-11T20:17:46.669Z,10.97
2019-02-11T20:20:18.116Z,11.03
2019-02-11T20:22:46.959Z,12.70
2019-02-11T20:25:17.415Z,10.43
2019-02-11T20:27:46.309Z,12.43
2019-02-11T20:30:23.159Z,11.80
2019-02-11T20:32:51.862Z,10.80
2019-02-11T20:35:20.675Z,11.97
2019-02-11T20:37:49.425Z,10.83
2019-02-11T20:40:30.471Z,11.03
2019-02-11T20:42:59.301Z,12.23
2019-02-11T20:45:29.689Z,12.83
2019-02-11T20:47:58.367Z,8.90
2019-02-11T20:50:31.610Z,7.27
2019-02-11T20:53:01.759Z,11.23
2019-02-11T20:55:30.676Z,16.77
2019-02-11T20:58:00.332Z,14.20
2019-02-11T21:00:29.045Z,9.07
2019-02-11T21:02:58.709Z,4.00
2019-02-11T21:05:30.607Z,3.00
2019-02-11T21:07:59.411Z,3.57
2019-02-11T21:10:28.111Z,4.33
2019-02-11T21:12:56.897Z,4.23
2019-02-11T21:15:25.716Z,3.43
2019-02-11T21:17:54.447Z,2.70
2019-02-11T21:20:31.706Z,3.20
2019-02-11T21:23:00.392Z,2.83
2019-02-11T21:25:29.082Z,3.17
2019-02-11T21:27:57.819Z,5.03
2019-02-11T21:30:29.483Z,5.80
2019-02-11T21:32:58.156Z,4.10
2019-02-11T21:35:26.888Z,4.60
2019-02-11T21:37:55.575Z,4.37
2019-02-11T21:40:24.267Z,3.10
2019-02-11T21:42:52.999Z,2.23
2019-02-11T21:45:21.686Z,5.37
2019-02-11T21:47:50.366Z,2.57
2019-02-11T21:50:26.396Z,2.27
2019-02-11T21:52:51.009Z,2.20
2019-02-11T21:55:21.093Z,3.70
2019-02-11T21:57:49.754Z,3.27
2019-02-11T22:00:20.998Z,2.97
2019-02-11T22:02:49.694Z,4.53
2019-02-11T22:05:18.367Z,2.07
2019-02-11T22:07:47.060Z,2.30
2019-02-11T22:10:17.958Z,1.57
2019-02-11T22:12:46.681Z,1.00
2019-02-11T22:15:15.874Z,1.40
2019-02-11T22:17:44.496Z,0.73
2019-02-11T22:20:15.482Z,1.00
2019-02-11T22:22:44.103Z,1.30
2019-02-11T22:25:13.692Z,0.93
2019-02-11T22:27:42.377Z,0.50
2019-02-11T22:30:13.831Z,0.53
2019-02-11T22:32:42.449Z,0.63
2019-02-11T22:35:11.391Z,0.70
2019-02-11T22:37:40.334Z,0.47
2019-02-11T22:40:14.085Z,0.60
2019-02-11T22:42:42.749Z,0.50
2019-02-11T22:45:19.781Z,0.23
2019-02-11T22:47:48.452Z,0.70
2019-02-11T22:50:17.170Z,0.70
2019-02-11T22:52:45.790Z,0.50
2019-02-11T22:55:15.340Z,0.57
2019-02-11T22:57:43.966Z,0.30
2019-02-11T23:00:28.769Z,0.60
2019-02-11T23:02:57.492Z,0.60
2019-02-11T23:05:26.941Z,0.50
2019-02-11T23:07:57.637Z,0.63
2019-02-11T23:10:25.936Z,0.53
2019-02-11T23:12:54.550Z,0.47
2019-02-11T23:15:23.200Z,0.30
2019-02-11T23:17:51.822Z,0.50
2019-02-11T23:20:20.444Z,0.50
2019-02-11T23:22:49.103Z,0.93
2019-02-11T23:25:17.735Z,0.70
2019-02-11T23:27:46.335Z,0.20
2019-02-11T23:30:14.992Z,0.30
2019-02-11T23:32:43.605Z,0.73
2019-02-11T23:35:12.237Z,0.80
2019-02-11T23:37:40.884Z,0.27
2019-02-11T23:40:10.411Z,0.70
2019-02-11T23:42:39.098Z,0.50
2019-02-11T23:45:09.838Z,0.40
2019-02-11T23:47:38.456Z,0.63
2019-02-11T23:50:09.918Z,0.80
2019-02-11T23:52:38.557Z,1.10
2019-02-11T23:55:09.071Z,0.43
2019-02-11T23:57:37.686Z,0.60
